createdAt,value
2022-10-31T00:01:23.573Z,101951.19
2022-10-31T00:03:50.268Z,101950.28
2022-10-31T00:06:20.164Z,101952.91
2022-10-31T00:08:47.855Z,101951.19
2022-10-31T00:11:14.415Z,101953.81
2022-10-31T00:13:40.959Z,101969.13
2022-10-31T00:16:15.122Z,101966.41
2022-10-31T00:18:41.643Z,101975.38
2022-10-31T00:21:08.206Z,101972.72
2022-10-31T00:23:34.743Z,101977.22
2022-10-31T00:26:02.872Z,101978.06
2022-10-31T00:28:31.352Z,101977.16
2022-10-31T00:31:05.563Z,101977.16
2022-10-31T00:33:34.359Z,101972.69
2022-10-31T00:36:00.927Z,101987.97
2022-10-31T00:38:27.487Z,101974.50
2022-10-31T00:40:54.025Z,101970.00
2022-10-31T00:43:20.568Z,101972.75
2022-10-31T00:45:47.251Z,101977.22
2022-10-31T00:48:13.839Z,101975.44
2022-10-31T00:50:40.813Z,101981.72
2022-10-31T00:53:07.406Z,101981.72
2022-10-31T00:55:34.000Z,101984.44
2022-10-31T00:58:00.819Z,101984.34
2022-10-31T01:00:27.706Z,101996.09
2022-10-31T01:02:54.255Z,101994.28
2022-10-31T01:05:21.150Z,101991.56
2022-10-31T01:07:47.682Z,101993.41
2022-10-31T01:10:14.314Z,101985.31
2022-10-31T01:12:45.479Z,101997.88
2022-10-31T01:15:13.752Z,101993.41
2022-10-31T01:17:40.402Z,101998.78
2022-10-31T01:20:08.841Z,101994.28
2022-10-31T01:22:35.402Z,101997.78
2022-10-31T01:25:01.931Z,102002.38
2022-10-31T01:27:28.483Z,102001.50
2022-10-31T01:29:55.027Z,102007.69
2022-10-31T01:32:21.577Z,102007.75
2022-10-31T01:34:48.125Z,102007.72
2022-10-31T01:37:14.648Z,102000.56
2022-10-31T01:39:41.208Z,102002.38
2022-10-31T01:42:07.772Z,102007.78
2022-10-31T01:44:34.222Z,102012.28
2022-10-31T01:47:05.943Z,102009.56
2022-10-31T01:50:12.283Z,102000.63
2022-10-31T01:52:42.357Z,102000.59
2022-10-31T01:55:33.716Z,101995.19
2022-10-31T01:58:04.015Z,101993.47
2022-10-31T02:00:31.378Z,101993.47
2022-10-31T02:02:58.344Z,101990.78
2022-10-31T02:05:27.306Z,101999.72
2022-10-31T02:08:01.157Z,101995.25
2022-10-31T02:10:27.717Z,101998.81
2022-10-31T02:12:56.749Z,101998.78
2022-10-31T02:15:23.563Z,102007.84
2022-10-31T02:17:50.379Z,102007.84
2022-10-31T02:20:22.102Z,102011.38
2022-10-31T02:23:22.586Z,102001.47
2022-10-31T02:26:26.622Z,102000.59
2022-10-31T02:29:01.992Z,101998.81
2022-10-31T02:31:55.555Z,102004.19
2022-10-31T02:34:34.191Z,101999.75
2022-10-31T02:37:42.917Z,101992.59
2022-10-31T02:40:22.230Z,101995.28
2022-10-31T02:43:00.795Z,101995.28
2022-10-31T02:45:38.550Z,101993.53
2022-10-31T02:48:11.221Z,101987.22
2022-10-31T02:50:42.042Z,101986.41
2022-10-31T02:53:08.607Z,101982.78
2022-10-31T02:55:35.102Z,101993.50
2022-10-31T02:58:11.551Z,101989.06
2022-10-31T03:00:53.626Z,101984.56
2022-10-31T03:03:25.883Z,101988.13
2022-10-31T03:06:18.622Z,101982.75
2022-10-31T03:08:51.966Z,101986.41
2022-10-31T03:11:19.735Z,101988.16
2022-10-31T03:13:53.123Z,101986.41
2022-10-31T03:16:22.488Z,101987.28
2022-10-31T03:18:56.991Z,101983.75
2022-10-31T03:21:46.511Z,101983.72
2022-10-31T03:24:13.781Z,101982.88
2022-10-31T03:26:44.116Z,101982.81
2022-10-31T03:29:14.458Z,101985.53
2022-10-31T03:31:45.991Z,101992.69
2022-10-31T03:34:13.892Z,101999.84
2022-10-31T03:36:41.262Z,101998.97
2022-10-31T03:39:10.359Z,101997.16
2022-10-31T03:41:40.274Z,101996.28
2022-10-31T03:44:10.934Z,102000.72
2022-10-31T03:46:37.639Z,101993.59
2022-10-31T03:49:04.545Z,101998.97
2022-10-31T03:52:00.026Z,102004.34
2022-10-31T03:54:26.508Z,102004.41
2022-10-31T03:57:09.707Z,102004.34
2022-10-31T03:59:46.285Z,102006.19
2022-10-31T04:02:16.139Z,102007.09
2022-10-31T04:04:45.133Z,102002.59
2022-10-31T04:07:12.074Z,102005.28
2022-10-31T04:09:43.670Z,102008.88
2022-10-31T04:12:15.987Z,102011.59
2022-10-31T04:14:45.154Z,102011.56
2022-10-31T04:17:14.827Z,102002.63
2022-10-31T04:19:41.407Z,102007.13
2022-10-31T04:22:08.039Z,102000.84
2022-10-31T04:24:34.643Z,102002.63
2022-10-31T04:27:01.192Z,102004.44
2022-10-31T04:29:27.726Z,102007.94
2022-10-31T04:31:54.250Z,102010.66
2022-10-31T04:34:20.781Z,102015.16
2022-10-31T04:36:47.307Z,102004.41
2022-10-31T04:39:13.850Z,102009.78
2022-10-31T04:41:40.393Z,102009.78
2022-10-31T04:44:06.927Z,102004.41
2022-10-31T04:46:33.471Z,102009.75
2022-10-31T04:49:00.014Z,102008.88
2022-10-31T04:51:26.556Z,102009.75
2022-10-31T04:53:53.104Z,102012.44
2022-10-31T04:56:19.690Z,102017.84
2022-10-31T04:58:46.258Z,102006.22
2022-10-31T05:01:13.491Z,102003.53
2022-10-31T05:03:40.601Z,102007.13
2022-10-31T05:06:07.807Z,101999.03
2022-10-31T05:08:34.359Z,102000.84
2022-10-31T05:11:04.427Z,101994.59
2022-10-31T05:13:31.951Z,101994.63
2022-10-31T05:15:58.531Z,102007.16
2022-10-31T05:18:25.123Z,102002.66
2022-10-31T05:20:51.685Z,101996.41
2022-10-31T05:23:18.238Z,102002.63
2022-10-31T05:25:44.786Z,101996.41
2022-10-31T05:28:11.343Z,102004.47
2022-10-31T05:30:37.963Z,101997.28
2022-10-31T05:33:04.624Z,102000.88
2022-10-31T05:35:32.902Z,102000.88
2022-10-31T05:38:00.134Z,101999.97
2022-10-31T05:40:27.729Z,101999.13
2022-10-31T05:45:23.302Z,102003.56
2022-10-31T05:47:58.002Z,102008.06
2022-10-31T05:50:25.959Z,102011.63
2022-10-31T05:53:00.820Z,102010.69
2022-10-31T05:55:28.062Z,102014.31
2022-10-31T05:57:55.413Z,102022.38
2022-10-31T06:00:22.922Z,102009.84
2022-10-31T06:02:49.713Z,102008.94
2022-10-31T06:05:17.532Z,102011.66
2022-10-31T06:07:44.060Z,102011.63
2022-10-31T06:10:11.791Z,102015.22
2022-10-31T06:12:38.783Z,102011.63
2022-10-31T06:15:09.739Z,102011.66
2022-10-31T06:17:36.710Z,102007.16
2022-10-31T06:20:04.205Z,102013.41
2022-10-31T06:22:30.799Z,102008.94
2022-10-31T06:24:57.491Z,102013.41
2022-10-31T06:27:24.321Z,102016.09
2022-10-31T06:29:50.917Z,102009.84
2022-10-31T06:32:18.114Z,102008.06
2022-10-31T06:34:44.936Z,102016.13
2022-10-31T06:37:12.794Z,102015.22
2022-10-31T06:39:39.533Z,102016.09
2022-10-31T06:42:06.084Z,102013.44
2022-10-31T06:44:32.671Z,102015.22
2022-10-31T06:46:59.423Z,102000.03
2022-10-31T06:49:25.988Z,102011.66
2022-10-31T06:51:52.534Z,102010.75
2022-10-31T06:54:19.095Z,102010.75
2022-10-31T06:56:48.982Z,102020.63
2022-10-31T06:59:15.875Z,102016.13
2022-10-31T07:01:42.677Z,102011.66
2022-10-31T07:04:11.229Z,102011.66
2022-10-31T07:06:37.838Z,102016.16
2022-10-31T07:09:05.156Z,102015.22
2022-10-31T07:11:31.714Z,102018.81
2022-10-31T07:13:58.285Z,102018.84
2022-10-31T07:16:24.851Z,102011.69
2022-10-31T07:18:51.487Z,102014.38
2022-10-31T07:21:18.010Z,102017.03
2022-10-31T07:23:44.562Z,102024.19
2022-10-31T07:26:11.305Z,102014.38
2022-10-31T07:28:37.850Z,102015.22
2022-10-31T07:31:04.433Z,102013.44
2022-10-31T07:33:30.972Z,102017.94
2022-10-31T07:35:57.546Z,102024.19
2022-10-31T07:38:24.098Z,102015.25
2022-10-31T07:40:52.865Z,102027.78
2022-10-31T07:43:19.996Z,102020.63
2022-10-31T07:45:53.660Z,102017.06
2022-10-31T07:48:20.420Z,102019.72
2022-10-31T07:50:47.285Z,102017.06
2022-10-31T07:53:14.654Z,102022.41
2022-10-31T07:55:41.633Z,102027.78
2022-10-31T07:58:10.309Z,102020.63
2022-10-31T08:00:38.223Z,102018.78
2022-10-31T08:03:09.819Z,102028.63
2022-10-31T08:05:37.161Z,102024.19
2022-10-31T08:08:05.126Z,102036.69
2022-10-31T08:10:32.588Z,102042.03
2022-10-31T08:13:03.900Z,102042.94
2022-10-31T08:15:31.208Z,102043.84
2022-10-31T08:17:58.057Z,102051.03
2022-10-31T08:20:24.942Z,102041.16
2022-10-31T08:22:56.418Z,102048.34
2022-10-31T08:25:23.678Z,102049.22
2022-10-31T08:27:54.410Z,102052.84
2022-10-31T08:30:22.150Z,102059.06
2022-10-31T08:32:51.597Z,102057.28
2022-10-31T08:35:18.127Z,102052.78
2022-10-31T08:37:44.970Z,102053.69
2022-10-31T08:40:12.235Z,102056.34
2022-10-31T08:42:38.791Z,102055.44
2022-10-31T08:45:05.694Z,102057.25
2022-10-31T08:47:32.329Z,102054.53
2022-10-31T08:49:58.922Z,102049.16
2022-10-31T08:52:51.156Z,102056.28
2022-10-31T08:55:12.850Z,102049.13
2022-10-31T08:57:39.451Z,102052.75
2022-10-31T09:00:06.701Z,102054.50
2022-10-31T09:02:33.226Z,102049.13
2022-10-31T09:04:59.743Z,102050.91
2022-10-31T09:07:26.508Z,102051.78
2022-10-31T09:09:53.050Z,102047.31
2022-10-31T09:12:19.641Z,102050.91
2022-10-31T09:14:46.192Z,102050.88
2022-10-31T09:17:12.717Z,102053.53
2022-10-31T09:19:39.830Z,102041.81
2022-10-31T09:22:06.368Z,102037.31
2022-10-31T09:24:32.911Z,102034.59
2022-10-31T09:26:59.617Z,102035.41
2022-10-31T09:29:26.150Z,102036.31
2022-10-31T09:31:52.735Z,102036.31
2022-10-31T09:34:19.280Z,102048.81
2022-10-31T09:36:47.009Z,102043.44
2022-10-31T09:39:13.703Z,102040.63
2022-10-31T09:41:58.223Z,102037.94
2022-10-31T09:44:39.622Z,102037.88
2022-10-31T09:47:23.214Z,102031.59
2022-10-31T09:50:17.008Z,102021.72
2022-10-31T09:52:49.070Z,102031.69
2022-10-31T09:55:31.588Z,102038.78
2022-10-31T09:57:59.633Z,102036.13
2022-10-31T10:00:26.393Z,102026.22
2022-10-31T10:03:13.170Z,102037.88
2022-10-31T10:05:50.539Z,102036.06
2022-10-31T10:08:21.631Z,102023.56
2022-10-31T10:11:16.077Z,102027.06
2022-10-31T10:13:53.051Z,102031.53
2022-10-31T10:16:45.686Z,102021.72
2022-10-31T10:19:31.734Z,102014.66
2022-10-31T10:22:10.601Z,102029.00
2022-10-31T10:24:43.062Z,102019.94
2022-10-31T10:27:24.275Z,102026.25
2022-10-31T10:29:56.617Z,102032.53
2022-10-31T10:32:28.831Z,102021.72
2022-10-31T10:35:00.588Z,102020.03
2022-10-31T10:37:31.884Z,102016.34
2022-10-31T10:40:12.655Z,102015.38
2022-10-31T10:42:57.963Z,102008.28
2022-10-31T10:45:43.215Z,101994.81
2022-10-31T10:48:20.332Z,102005.59
2022-10-31T10:50:51.658Z,102007.41
2022-10-31T10:53:36.463Z,102014.47
2022-10-31T10:56:46.556Z,102002.81
2022-10-31T10:59:19.349Z,102001.03
2022-10-31T11:01:46.587Z,102000.06
2022-10-31T11:04:26.588Z,101989.31
2022-10-31T11:07:08.439Z,101990.16
2022-10-31T11:09:35.831Z,101985.75
2022-10-31T11:12:22.183Z,101992.84
2022-10-31T11:14:49.974Z,101979.38
2022-10-31T11:17:34.155Z,101986.53
2022-10-31T11:20:05.335Z,101978.41
2022-10-31T11:22:32.279Z,101978.44
2022-10-31T11:24:58.864Z,101973.06
2022-10-31T11:27:26.652Z,101964.94
2022-10-31T11:30:00.536Z,101966.66
2022-10-31T11:32:28.242Z,101966.66
2022-10-31T11:35:00.507Z,101961.16
2022-10-31T11:37:29.430Z,101959.34
2022-10-31T11:39:57.779Z,101944.06
2022-10-31T11:42:26.848Z,101938.66
2022-10-31T11:44:54.411Z,101935.09
2022-10-31T11:47:28.112Z,101930.53
2022-10-31T11:49:54.960Z,101926.06
2022-10-31T11:52:29.787Z,101926.03
2022-10-31T11:54:59.949Z,101919.72
2022-10-31T11:57:34.816Z,101935.00
2022-10-31T12:00:04.518Z,101924.34
2022-10-31T12:02:31.307Z,101926.09
2022-10-31T12:05:32.134Z,101909.97
2022-10-31T12:08:03.451Z,101904.53
2022-10-31T12:10:40.883Z,101901.84
2022-10-31T12:13:28.394Z,101897.44
2022-10-31T12:16:23.153Z,101902.72
2022-10-31T12:18:59.889Z,101898.28
2022-10-31T12:21:48.000Z,101888.34
2022-10-31T12:24:26.371Z,101882.97
2022-10-31T12:27:16.405Z,101893.75
2022-10-31T12:30:07.449Z,101891.97
2022-10-31T12:32:39.672Z,101888.41
2022-10-31T12:35:44.864Z,101872.28
2022-10-31T12:38:27.245Z,101872.22
2022-10-31T12:41:03.770Z,101862.31
2022-10-31T12:43:39.215Z,101866.81
2022-10-31T12:46:10.920Z,101856.06
2022-10-31T12:49:01.862Z,101848.94
2022-10-31T12:51:37.207Z,101834.56
2022-10-31T12:54:10.619Z,101831.91
2022-10-31T12:56:55.531Z,101822.13
2022-10-31T12:59:40.061Z,101806.81
2022-10-31T13:02:30.660Z,101809.59
2022-10-31T13:05:01.246Z,101800.78
2022-10-31T13:07:49.443Z,101795.22
2022-10-31T13:10:18.682Z,101799.78
2022-10-31T13:12:46.890Z,101791.66
2022-10-31T13:15:24.183Z,101780.94
2022-10-31T13:18:07.041Z,101778.25
2022-10-31T13:20:36.086Z,101768.38
2022-10-31T13:23:48.496Z,101754.03
2022-10-31T13:26:12.921Z,101759.41
2022-10-31T13:29:00.839Z,101760.28
2022-10-31T13:31:27.383Z,101759.44
2022-10-31T13:33:58.786Z,101777.28
2022-10-31T13:36:44.836Z,101764.69
2022-10-31T13:39:33.480Z,101761.13
2022-10-31T13:42:24.649Z,101760.19
2022-10-31T13:44:51.186Z,101759.41
2022-10-31T13:47:30.419Z,101752.16
2022-10-31T13:50:25.310Z,101748.53
2022-10-31T13:52:51.935Z,101740.44
2022-10-31T13:55:44.502Z,101735.91
2022-10-31T13:58:20.223Z,101737.75
2022-10-31T14:00:46.804Z,101718.06
2022-10-31T14:03:36.248Z,101707.19
2022-10-31T14:06:03.671Z,101690.91
2022-10-31T14:08:34.382Z,101693.69
2022-10-31T14:11:01.070Z,101690.00
2022-10-31T14:13:47.566Z,101694.41
2022-10-31T14:16:24.450Z,101688.13
2022-10-31T14:19:04.834Z,101686.38
2022-10-31T14:21:44.520Z,101681.13
2022-10-31T14:24:16.623Z,101684.81
2022-10-31T14:26:56.320Z,101675.72
2022-10-31T14:29:29.000Z,101680.25
2022-10-31T14:32:11.811Z,101683.00
2022-10-31T14:34:50.556Z,101671.38
2022-10-31T14:37:55.385Z,101673.16
2022-10-31T14:40:41.186Z,101667.81
2022-10-31T14:43:32.487Z,101667.84
2022-10-31T14:46:04.483Z,101669.72
2022-10-31T14:49:00.338Z,101669.69
2022-10-31T14:51:33.523Z,101671.47
2022-10-31T14:54:00.761Z,101666.13
2022-10-31T14:56:31.756Z,101674.31
2022-10-31T14:59:01.116Z,101673.28
2022-10-31T15:01:34.503Z,101667.91
2022-10-31T15:04:25.260Z,101657.16
2022-10-31T15:07:13.107Z,101664.41
2022-10-31T15:09:43.618Z,101653.63
2022-10-31T15:12:27.159Z,101653.56
2022-10-31T15:14:54.071Z,101634.81
2022-10-31T15:17:21.215Z,101641.97
2022-10-31T15:19:48.043Z,101638.38
2022-10-31T15:22:19.259Z,101633.88
2022-10-31T15:24:46.220Z,101631.19
2022-10-31T15:27:17.842Z,101624.97
2022-10-31T15:29:52.754Z,101614.25
2022-10-31T15:32:27.501Z,101606.13
2022-10-31T15:34:55.489Z,101599.88
2022-10-31T15:37:23.403Z,101591.81
2022-10-31T15:39:50.302Z,101587.34
2022-10-31T15:42:23.277Z,101584.63
2022-10-31T15:44:55.012Z,101583.78
2022-10-31T15:47:23.579Z,101582.84
2022-10-31T15:49:55.082Z,101576.59
2022-10-31T15:52:32.066Z,101570.28
2022-10-31T15:55:04.150Z,101576.59
2022-10-31T15:57:31.379Z,101563.13
2022-10-31T15:59:58.278Z,101571.19
2022-10-31T16:02:28.151Z,101560.53
2022-10-31T16:05:00.230Z,101563.22
2022-10-31T16:07:26.789Z,101555.19
2022-10-31T16:09:54.839Z,101564.13
2022-10-31T16:12:22.995Z,101555.16
2022-10-31T16:14:51.022Z,101564.06
2022-10-31T16:17:21.990Z,101554.22
2022-10-31T16:19:56.213Z,101554.19
2022-10-31T16:22:29.284Z,101556.00
2022-10-31T16:25:07.141Z,101548.03
2022-10-31T16:27:35.791Z,101546.22
2022-10-31T16:30:05.409Z,101556.97
2022-10-31T16:32:36.207Z,101542.72
2022-10-31T16:35:11.378Z,101546.31
2022-10-31T16:37:41.610Z,101537.25
2022-10-31T16:40:11.109Z,101530.28
2022-10-31T16:42:37.711Z,101527.50
2022-10-31T16:45:06.186Z,101521.13
2022-10-31T16:47:32.768Z,101512.22
2022-10-31T16:50:01.003Z,101512.22
2022-10-31T16:52:27.734Z,101507.72
2022-10-31T16:54:55.186Z,101521.22
2022-10-31T16:57:29.279Z,101517.63
2022-10-31T16:59:55.855Z,101514.97
2022-10-31T17:02:22.720Z,101512.28
2022-10-31T17:04:52.161Z,101513.19
2022-10-31T17:07:22.227Z,101522.16
2022-10-31T17:09:48.765Z,101514.09
2022-10-31T17:12:19.703Z,101515.91
2022-10-31T17:14:49.125Z,101509.59
2022-10-31T17:17:15.686Z,101506.06
2022-10-31T17:19:42.207Z,101503.31
2022-10-31T17:22:13.675Z,101494.41
2022-10-31T17:24:40.224Z,101483.69
2022-10-31T17:27:07.160Z,101482.81
2022-10-31T17:29:33.850Z,101487.25
2022-10-31T17:32:00.432Z,101489.06
2022-10-31T17:34:26.997Z,101478.28
2022-10-31T17:36:53.599Z,101476.47
2022-10-31T17:39:20.142Z,101471.94
2022-10-31T17:41:46.741Z,101464.97
2022-10-31T17:44:13.278Z,101461.41
2022-10-31T17:46:39.820Z,101456.84
2022-10-31T17:49:08.486Z,101461.28
2022-10-31T17:51:35.420Z,101457.72
2022-10-31T17:54:01.970Z,101450.59
2022-10-31T17:56:28.515Z,101440.75
2022-10-31T17:58:57.230Z,101426.41
2022-10-31T18:01:24.266Z,101424.63
2022-10-31T18:03:50.862Z,101428.28
2022-10-31T18:06:17.472Z,101427.38
2022-10-31T18:08:44.438Z,101419.38
2022-10-31T18:11:16.820Z,101413.03
2022-10-31T18:16:12.504Z,101396.00
2022-10-31T18:18:39.223Z,101395.13
2022-10-31T18:21:06.035Z,101387.91
2022-10-31T18:23:32.565Z,101390.63
2022-10-31T18:25:59.142Z,101390.72
2022-10-31T18:28:25.724Z,101389.91
2022-10-31T18:30:52.271Z,101378.22
2022-10-31T18:33:18.829Z,101369.28
2022-10-31T18:35:45.431Z,101358.41
2022-10-31T18:38:12.339Z,101356.63
2022-10-31T18:40:39.349Z,101344.19
2022-10-31T18:43:06.173Z,101333.41
2022-10-31T18:45:46.049Z,101338.81
2022-10-31T18:48:14.627Z,101334.34
2022-10-31T18:50:41.394Z,101328.06
2022-10-31T18:53:08.087Z,101336.88
2022-10-31T18:55:38.439Z,101326.13
2022-10-31T18:58:05.002Z,101325.34
2022-10-31T19:00:31.534Z,101315.50
2022-10-31T19:02:58.172Z,101315.25
2022-10-31T19:05:24.862Z,101310.03
2022-10-31T19:07:51.443Z,101306.44
2022-10-31T19:10:17.998Z,101304.50
2022-10-31T19:12:44.586Z,101292.09
2022-10-31T19:15:11.204Z,101297.41
2022-10-31T19:17:37.746Z,101287.53
2022-10-31T19:20:04.681Z,101270.44
2022-10-31T19:22:32.134Z,101274.75
2022-10-31T19:24:58.683Z,101266.69
2022-10-31T19:27:28.052Z,101263.19
2022-10-31T19:29:54.639Z,101257.81
2022-10-31T19:32:21.178Z,101250.59
2022-10-31T19:34:47.738Z,101248.81
2022-10-31T19:37:14.291Z,101246.94
2022-10-31T19:39:44.172Z,101241.66
2022-10-31T19:42:11.897Z,101242.28
2022-10-31T19:44:38.478Z,101241.47
2022-10-31T19:47:05.195Z,101235.34
2022-10-31T19:49:31.779Z,101234.53
2022-10-31T19:51:58.366Z,101219.94
2022-10-31T19:54:24.906Z,101215.63
2022-10-31T19:56:51.443Z,101205.78
2022-10-31T19:59:18.047Z,101194.97
2022-10-31T20:01:44.656Z,101203.09
2022-10-31T20:04:11.411Z,101196.75
2022-10-31T20:06:40.291Z,101185.22
2022-10-31T20:09:09.742Z,101179.78
2022-10-31T20:11:37.841Z,101173.44
2022-10-31T20:14:04.380Z,101166.25
2022-10-31T20:16:31.033Z,101173.50
2022-10-31T20:18:59.548Z,101174.44
2022-10-31T20:21:28.586Z,101168.00
2022-10-31T20:24:00.637Z,101160.88
2022-10-31T20:26:27.998Z,101160.91
2022-10-31T20:28:58.322Z,101157.22
2022-10-31T20:31:27.301Z,101147.44
2022-10-31T20:33:54.299Z,101146.56
2022-10-31T20:36:23.482Z,101148.34
2022-10-31T20:38:51.630Z,101139.34
2022-10-31T20:41:18.368Z,101137.56
2022-10-31T20:43:45.317Z,101151.16
2022-10-31T20:46:19.837Z,101146.69
2022-10-31T20:48:46.784Z,101140.41
2022-10-31T20:51:18.560Z,101150.16
2022-10-31T20:53:45.600Z,101137.63
2022-10-31T20:56:17.338Z,101132.25
2022-10-31T20:58:44.574Z,101126.06
2022-10-31T21:01:16.818Z,101124.22
2022-10-31T21:03:43.842Z,101119.81
2022-10-31T21:06:10.882Z,101113.53
2022-10-31T21:08:39.127Z,101122.53
2022-10-31T21:11:08.592Z,101114.34
2022-10-31T21:13:40.532Z,101109.19
2022-10-31T21:16:16.207Z,101116.25
2022-10-31T21:18:43.789Z,101117.41
2022-10-31T21:21:12.642Z,101102.91
2022-10-31T21:23:39.430Z,101111.88
2022-10-31T21:28:44.846Z,101100.13
2022-10-31T21:31:15.456Z,101095.66
2022-10-31T21:33:42.793Z,101106.50
2022-10-31T21:36:09.685Z,101089.56
2022-10-31T21:38:36.572Z,101093.06
2022-10-31T21:41:09.801Z,101087.69
2022-10-31T21:43:37.695Z,101084.19
2022-10-31T21:46:06.306Z,101083.25
2022-10-31T21:48:33.252Z,101078.00
2022-10-31T21:51:06.482Z,101067.13
2022-10-31T21:53:51.294Z,101065.44
2022-10-31T21:56:17.827Z,101068.28
2022-10-31T21:58:44.386Z,101059.34
2022-10-31T22:01:11.040Z,101057.56
2022-10-31T22:03:38.697Z,101044.94
2022-10-31T22:06:06.451Z,101051.25
2022-10-31T22:08:33.351Z,101049.38
2022-10-31T22:11:05.768Z,101032.47
2022-10-31T22:13:33.089Z,101039.63
2022-10-31T22:16:04.201Z,101028.91
2022-10-31T22:18:30.797Z,101030.69
2022-10-31T22:21:24.039Z,101028.88
2022-10-31T22:23:52.187Z,101021.81
2022-10-31T22:26:19.115Z,101019.94
2022-10-31T22:28:47.585Z,101019.94
2022-10-31T22:31:19.158Z,101020.84
2022-10-31T22:33:46.636Z,101004.88
2022-10-31T22:36:18.286Z,101000.41
2022-10-31T22:38:45.489Z,101005.00
2022-10-31T22:41:17.866Z,101000.31
2022-10-31T22:43:44.907Z,100989.75
2022-10-31T22:46:16.571Z,100987.06
2022-10-31T22:48:45.743Z,100979.06
2022-10-31T22:51:17.002Z,100979.91
2022-10-31T22:53:43.802Z,100970.03
2022-10-31T22:56:14.532Z,100968.25
2022-10-31T22:58:41.287Z,100970.03
2022-10-31T23:01:27.625Z,100969.06
2022-10-31T23:03:54.289Z,100959.31
2022-10-31T23:06:22.848Z,100961.19
2022-10-31T23:08:50.122Z,100956.72
2022-10-31T23:11:28.203Z,100945.88
2022-10-31T23:14:16.289Z,100944.25
2022-10-31T23:16:47.803Z,100945.19
2022-10-31T23:19:19.935Z,100950.44
2022-10-31T23:22:00.024Z,100943.50
2022-10-31T23:24:31.871Z,100939.81
2022-10-31T23:27:10.855Z,100931.84
2022-10-31T23:29:51.766Z,100929.06
2022-10-31T23:32:28.013Z,100925.53
2022-10-31T23:34:56.366Z,100917.56
2022-10-31T23:37:27.936Z,100911.25
2022-10-31T23:39:54.783Z,100916.66
2022-10-31T23:42:22.025Z,100908.56
2022-10-31T23:44:48.627Z,100901.41
2022-10-31T23:47:16.159Z,100893.34
2022-10-31T23:49:42.749Z,100895.16
2022-10-31T23:52:09.736Z,100894.28
2022-10-31T23:54:36.410Z,100896.81
2022-10-31T23:57:03.406Z,100893.34
2022-10-31T23:59:30.262Z,100890.72
